Vandenberg Air Force Base
KVBG : now visible

Airfield :











YOU CAN JOIN US ON...

 
LOGIN :

Register | Disclaimer

   EN    FR    IT 

 









Legend :    VFR   Marginal VFR   IFR   Intensive IFR   Very Intensive IFR
Visi :
Ceiling :
>= 8 km
>= 3000ft
5 to 8 km
1000 to 3000 ft
1500m to 5 km
500 to 1000 ft
800 to 1500m
200 to 500 ft
< 800m
< 200 ft
Symbols :   Thunderstorms  Fog  Heavy snow  Heavy precipitations  Wind > 20 kt






- Airport Elevation : 369 ft


KVBG - Vandenberg Air Force Base

CURRENT METAR :
  • 142240Z 33010G19KT 10SM SCT016 BKN270 18/12 A3001 RMK SLP165

EXPIRED METARs :
  • 142158Z 32011KT 10SM CLR 18/12 A3001 RMK AO2A SLP165 T01780119
  • 142058Z 32009KT 10SM FEW018 18/12 A3001 RMK AO2A SLP165 T01770118 58004
  • 141958Z 33007KT 10SM FEW280 SCT350 18/12 A3003 RMK AO2A SLP171 T01750115

TAF TAF KVBG
Valid from the 14 at 22:00 until the 16 at 04:00 UTC


142200Z 1422/1604 33012KT 9999 SCT015 QNH2999INS
BECMG 1423/1424 33012KT 9999 BKN012 QNH2996INS
BECMG 1501/1502 VRB06KT 9999 OVC009 QNH2995INS
BECMG 1506/1507 VRB06KT 4800 BR OVC006 QNH2997INS
TEMPO 1510/1516 3200 -DZ BR OVC004
BECMG 1515/1516 VRB06KT 9999 NSW OVC008 QNH3000INS
BECMG 1517/1518 27009KT 9999 BKN010 QNH3002INS
BECMG 1519/1520 27012KT 9999 SCT012 QNH2999INS
BECMG 1600/1601 VRB06KT 9999 BKN009 QNH2996INS TX18/1520Z TN12/1514Z LAST NO AMDS AFT 1500 NEXT 1514
KZLA FIR / North America



MET'MAP, your aeronautical weather chart ! - Copyright ORBIFLY December 2007 - Disclaimer

ORBIFLY MET'MAP TEAM :

Programming & Development : Alexandra Zaïnal
Concept & original design : Baudouin d'Aumeries
Assistance for programming : Marc-Olivier Méhu
Technical & hardware support : Manuel Goepfert

Contact : metmap@orbifly.com




SOURCES & CREDITS :

   NOAA       Earth
Advisory